Time;durP1;ratioP1;P1;durP2;ratioP2;P2;SDS_P1;SDS_P2;PMS_P1;PMS_P2;Temp;Humidity;BMP_temperature;BMP_pressure;BME280_temperature;BME280_humidity;BME280_pressure;Samples;Min_cycle;Max_cycle;Signal;HPM_P1;HPM_P2
2023/12/24 00:01:43;;;;;;;17.90;4.82;;;10.00;99.90;;;;;;5129852;28;20046;-79
2023/12/24 00:04:10;;;;;;;10.95;3.53;;;9.80;99.90;;;;;;5129985;28;20040;-79
2023/12/24 00:06:35;;;;;;;11.32;3.38;;;9.80;99.90;;;;;;5130005;28;20039;-79
2023/12/24 00:09:01;;;;;;;13.65;4.32;;;10.00;99.90;;;;;;5128440;28;20042;-78
2023/12/24 00:11:27;;;;;;;11.82;3.78;;;9.80;99.90;;;;;;5127297;28;20040;-78
2023/12/24 00:13:52;;;;;;;13.48;4.03;;;9.80;99.90;;;;;;5128872;27;20028;-78
2023/12/24 00:16:18;;;;;;;15.02;2.97;;;9.80;99.90;;;;;;5128156;28;20467;-78
2023/12/24 00:18:43;;;;;;;13.40;3.55;;;9.90;99.90;;;;;;5129732;28;20558;-78
2023/12/24 00:21:12;;;;;;;15.57;5.68;;;9.80;99.90;;;;;;5128973;28;20040;-78
2023/12/24 00:23:37;;;;;;;16.58;4.13;;;9.80;99.90;;;;;;5128128;28;20088;-78
2023/12/24 00:26:03;;;;;;;26.45;4.28;;;10.00;99.90;;;;;;5128072;28;20067;-78
2023/12/24 00:28:29;;;;;;;13.70;4.18;;;10.00;99.90;;;;;;5127217;28;20043;-78
2023/12/24 00:30:54;;;;;;;13.70;4.63;;;10.10;99.90;;;;;;5127967;28;20050;-78
2023/12/24 00:33:21;;;;;;;12.32;3.45;;;10.00;99.90;;;;;;5127430;28;20040;-78
2023/12/24 00:35:47;;;;;;;18.13;4.53;;;9.90;99.90;;;;;;5128520;28;20035;-78
2023/12/24 00:38:13;;;;;;;13.05;3.53;;;9.80;99.90;;;;;;5127435;28;20027;-78
2023/12/24 00:40:38;;;;;;;14.60;4.32;;;10.00;99.90;;;;;;5128760;28;20074;-78
2023/12/24 00:43:04;;;;;;;16.35;3.83;;;10.10;99.90;;;;;;5126122;28;20045;-79
2023/12/24 00:45:30;;;;;;;11.73;3.70;;;9.80;99.90;;;;;;5129739;28;20040;-79
2023/12/24 00:47:56;;;;;;;11.93;4.30;;;10.10;99.90;;;;;;5129069;28;20046;-78
2023/12/24 00:50:21;;;;;;;11.15;3.70;;;10.00;99.90;;;;;;5111667;28;20406;-78
2023/12/24 00:52:47;;;;;;;12.07;3.83;;;9.90;99.90;;;;;;5128265;28;20067;-78
2023/12/24 00:55:12;;;;;;;18.77;4.65;;;9.90;99.90;;;;;;5126636;28;20061;-78
2023/12/24 00:57:38;;;;;;;13.32;3.40;;;10.00;99.90;;;;;;5127502;28;20040;-78
2023/12/24 01:00:05;;;;;;;22.90;6.25;;;10.00;99.90;;;;;;5126681;28;20046;-79
2023/12/24 01:02:31;;;;;;;11.27;3.90;;;9.80;99.90;;;;;;5123928;28;20188;-79
2023/12/24 01:04:56;;;;;;;14.10;3.47;;;9.90;99.90;;;;;;5123573;28;20078;-78
2023/12/24 01:07:22;;;;;;;16.98;5.70;;;10.00;99.90;;;;;;5123545;28;20062;-79
2023/12/24 01:09:48;;;;;;;18.58;4.75;;;9.80;99.90;;;;;;5120809;28;20043;-78
2023/12/24 01:12:13;;;;;;;19.48;3.67;;;10.00;99.90;;;;;;5118509;28;20092;-78
2023/12/24 01:14:39;;;;;;;16.73;3.85;;;9.80;99.90;;;;;;5118026;28;20039;-78
2023/12/24 01:17:05;;;;;;;13.77;4.65;;;9.80;99.90;;;;;;5117823;28;20055;-78
2023/12/24 01:19:31;;;;;;;17.88;4.00;;;9.80;99.90;;;;;;5118177;28;20039;-78
2023/12/24 01:21:56;;;;;;;13.50;4.65;;;10.00;99.90;;;;;;5118361;28;20036;-78
2023/12/24 01:24:22;;;;;;;14.73;4.22;;;9.80;99.90;;;;;;5117728;28;20491;-78
2023/12/24 01:26:48;;;;;;;13.98;4.43;;;9.90;99.90;;;;;;5117693;28;20044;-78
2023/12/24 01:29:13;;;;;;;18.20;4.00;;;10.00;99.90;;;;;;5117469;28;20308;-78
2023/12/24 01:31:39;;;;;;;12.25;3.90;;;10.10;99.90;;;;;;5118490;28;20043;-78
2023/12/24 01:34:05;;;;;;;11.90;3.85;;;9.80;99.90;;;;;;5118902;28;20096;-78
2023/12/24 01:36:30;;;;;;;14.27;3.60;;;9.80;99.90;;;;;;5118309;28;20035;-78
2023/12/24 01:38:56;;;;;;;12.90;3.60;;;9.80;99.90;;;;;;5118442;28;20039;-78
2023/12/24 01:41:22;;;;;;;13.82;3.80;;;9.90;99.90;;;;;;5118808;28;20047;-79
2023/12/24 01:43:48;;;;;;;12.00;3.38;;;9.90;99.90;;;;;;5118038;28;20043;-79
2023/12/24 01:46:19;;;;;;;11.82;4.32;;;9.80;99.90;;;;;;5120904;28;20048;-76
2023/12/24 01:48:45;;;;;;;14.77;3.58;;;9.80;99.90;;;;;;5122350;28;20095;-78
2023/12/24 01:51:12;;;;;;;12.85;3.17;;;10.00;99.90;;;;;;5119092;28;20059;-78
2023/12/24 01:53:37;;;;;;;11.30;3.50;;;9.70;99.90;;;;;;5119548;28;20040;-78
2023/12/24 01:56:05;;;;;;;11.77;3.50;;;9.80;99.90;;;;;;5119430;28;20123;-78
2023/12/24 01:58:31;;;;;;;7.70;2.28;;;9.90;99.90;;;;;;5118803;28;20042;-78
2023/12/24 02:00:57;;;;;;;10.10;2.90;;;10.10;99.90;;;;;;5118570;28;20039;-78
2023/12/24 02:03:23;;;;;;;10.25;2.85;;;10.00;99.90;;;;;;5118625;28;20057;-78
2023/12/24 02:05:50;;;;;;;11.25;3.20;;;9.80;99.90;;;;;;5119912;28;20063;-78
2023/12/24 02:08:18;;;;;;;7.68;2.25;;;10.00;99.90;;;;;;5118355;28;20688;-78
2023/12/24 02:10:45;;;;;;;6.25;2.30;;;9.80;99.90;;;;;;5119708;28;20043;-79
2023/12/24 02:13:12;;;;;;;7.60;2.50;;;9.80;99.90;;;;;;5119365;28;20040;-78
2023/12/24 02:15:38;;;;;;;6.35;2.20;;;10.00;99.90;;;;;;5120138;28;20035;-79
2023/12/24 02:18:06;;;;;;;9.43;1.98;;;9.80;99.90;;;;;;5118988;28;20032;-79
2023/12/24 02:20:32;;;;;;;8.63;2.28;;;10.00;99.90;;;;;;5120378;28;20046;-79
2023/12/24 02:22:58;;;;;;;7.15;2.15;;;9.90;99.90;;;;;;5119842;28;20035;-78
2023/12/24 02:25:26;;;;;;;7.85;2.42;;;9.90;99.90;;;;;;5120296;28;20692;-78
2023/12/24 02:27:58;;;;;;;7.25;2.38;;;10.10;99.90;;;;;;5119329;28;20035;-78
2023/12/24 02:30:31;;;;;;;7.00;2.10;;;10.00;99.90;;;;;;5120882;28;20178;-79
2023/12/24 02:32:59;;;;;;;4.85;2.80;;;9.80;99.90;;;;;;5119839;28;20118;-78
2023/12/24 02:35:29;;;;;;;7.78;2.60;;;9.90;99.90;;;;;;5119974;28;20078;-78
2023/12/24 02:37:55;;;;;;;10.75;2.63;;;10.00;99.90;;;;;;5119660;28;20513;-79
2023/12/24 02:40:21;;;;;;;12.23;2.90;;;10.00;99.90;;;;;;5120221;28;20031;-78
2023/12/24 02:42:46;;;;;;;9.13;2.95;;;9.90;99.90;;;;;;5144102;22;20093;-73
2023/12/24 02:45:12;;;;;;;7.80;2.67;;;10.10;99.90;;;;;;5049543;28;20041;-71
2023/12/24 02:47:38;;;;;;;7.93;2.90;;;10.00;99.90;;;;;;5050965;28;20044;-71
2023/12/24 02:50:05;;;;;;;5.57;2.72;;;9.90;99.90;;;;;;5051323;28;20112;-71
2023/12/24 02:52:30;;;;;;;11.45;3.90;;;10.20;99.90;;;;;;5051144;28;20071;-71
2023/12/24 02:54:56;;;;;;;13.02;3.50;;;10.10;99.90;;;;;;5051435;28;20037;-71
2023/12/24 02:57:22;;;;;;;8.80;3.47;;;10.20;99.90;;;;;;5051139;28;20059;-71
2023/12/24 02:59:48;;;;;;;6.90;2.97;;;10.00;99.90;;;;;;5051684;28;20047;-71
2023/12/24 03:02:14;;;;;;;9.68;3.30;;;10.00;99.90;;;;;;5051353;28;20127;-71
2023/12/24 03:04:39;;;;;;;10.80;3.00;;;10.10;99.90;;;;;;5051379;28;20029;-71
2023/12/24 03:07:05;;;;;;;13.95;3.78;;;10.20;99.90;;;;;;5051106;28;20500;-71
2023/12/24 03:09:31;;;;;;;12.48;3.60;;;10.00;99.90;;;;;;5051163;28;20048;-71
2023/12/24 03:11:56;;;;;;;14.18;3.65;;;10.10;99.90;;;;;;5051282;28;20045;-71
2023/12/24 03:14:22;;;;;;;7.63;2.75;;;10.20;99.90;;;;;;5051168;28;20507;-71
2023/12/24 03:16:48;;;;;;;7.53;2.65;;;10.10;99.90;;;;;;5051155;28;20041;-71
2023/12/24 03:19:14;;;;;;;7.00;3.05;;;10.10;99.90;;;;;;5051432;28;20041;-71
2023/12/24 03:21:43;;;;;;;7.70;2.58;;;10.10;99.90;;;;;;5050197;28;20045;-71
2023/12/24 03:24:09;;;;;;;10.05;2.55;;;10.20;99.90;;;;;;5051191;28;20044;-71
2023/12/24 03:26:34;;;;;;;9.55;2.83;;;10.10;99.90;;;;;;5051031;28;20187;-71
2023/12/24 03:29:00;;;;;;;8.80;2.35;;;10.20;99.90;;;;;;5051275;28;20120;-71
2023/12/24 03:31:26;;;;;;;6.35;2.03;;;10.20;99.90;;;;;;5049966;28;20037;-71
2023/12/24 03:33:55;;;;;;;4.18;2.10;;;10.10;99.90;;;;;;5049977;28;20044;-71
2023/12/24 03:36:21;;;;;;;5.30;2.35;;;10.20;99.90;;;;;;5051101;28;20044;-71
2023/12/24 03:38:46;;;;;;;8.57;2.55;;;10.20;99.90;;;;;;5051364;28;20033;-71
2023/12/24 03:41:12;;;;;;;6.53;2.50;;;10.30;99.90;;;;;;5050977;28;20045;-71
2023/12/24 03:43:38;;;;;;;9.82;2.55;;;10.20;99.90;;;;;;5051050;28;20075;-71
2023/12/24 03:46:04;;;;;;;4.40;2.25;;;10.40;99.90;;;;;;5050867;28;20512;-71
2023/12/24 03:48:35;;;;;;;7.20;2.60;;;10.40;99.90;;;;;;5051221;28;20041;-71
2023/12/24 03:51:01;;;;;;;6.18;2.55;;;10.20;99.90;;;;;;5051598;28;20049;-71
2023/12/24 03:53:27;;;;;;;7.05;2.92;;;10.30;99.90;;;;;;5055044;28;20112;-72
2023/12/24 03:55:53;;;;;;;3.78;2.25;;;10.30;99.90;;;;;;5054633;28;20040;-71
2023/12/24 03:58:19;;;;;;;6.85;2.40;;;10.20;99.90;;;;;;5053805;28;20037;-71
2023/12/24 04:00:44;;;;;;;4.68;2.28;;;10.40;99.90;;;;;;5053707;28;20091;-71
2023/12/24 04:03:10;;;;;;;5.13;2.75;;;10.40;99.90;;;;;;5054416;28;20041;-71
2023/12/24 04:05:35;;;;;;;3.72;1.88;;;10.20;99.90;;;;;;5054505;28;20057;-71
2023/12/24 04:08:01;;;;;;;4.63;2.60;;;10.50;99.90;;;;;;5054135;28;20465;-71
2023/12/24 04:10:27;;;;;;;5.70;2.45;;;10.30;99.90;;;;;;5054216;28;20037;-71
2023/12/24 04:12:52;;;;;;;5.30;2.30;;;10.20;99.90;;;;;;5054282;28;20110;-71
2023/12/24 04:15:18;;;;;;;5.40;2.10;;;10.40;99.90;;;;;;5054450;28;20519;-71
2023/12/24 04:17:44;;;;;;;5.78;1.70;;;10.30;99.90;;;;;;5054062;28;20041;-71
2023/12/24 04:20:10;;;;;;;6.28;2.17;;;10.50;99.90;;;;;;5053051;28;20032;-71
2023/12/24 04:22:35;;;;;;;5.70;2.45;;;10.50;99.90;;;;;;5053133;28;20075;-71
2023/12/24 04:25:01;;;;;;;6.25;2.17;;;10.30;99.90;;;;;;5053778;28;20036;-71
2023/12/24 04:27:26;;;;;;;4.95;1.85;;;10.40;99.90;;;;;;5053890;28;20041;-71
2023/12/24 04:29:52;;;;;;;3.40;1.88;;;10.40;99.90;;;;;;5052719;28;20041;-71
2023/12/24 04:32:21;;;;;;;2.95;1.77;;;10.50;99.90;;;;;;5052727;28;20047;-71
2023/12/24 04:34:46;;;;;;;3.15;1.67;;;10.30;99.90;;;;;;5053692;28;20036;-71
2023/12/24 04:37:13;;;;;;;4.55;1.60;;;10.40;99.90;;;;;;5052313;28;20037;-71
2023/12/24 04:39:38;;;;;;;5.82;2.10;;;10.50;99.90;;;;;;5052392;28;20432;-71
2023/12/24 04:42:04;;;;;;;2.65;1.30;;;10.40;99.90;;;;;;5053840;28;20048;-71
2023/12/24 04:44:30;;;;;;;4.32;1.60;;;10.60;99.90;;;;;;5052578;28;20148;-71
2023/12/24 04:46:55;;;;;;;3.67;1.50;;;10.60;99.90;;;;;;5053391;28;20550;-71
2023/12/24 04:49:21;;;;;;;2.28;1.10;;;10.60;99.90;;;;;;5053563;28;20048;-71
2023/12/24 04:51:46;;;;;;;2.13;1.15;;;10.40;99.90;;;;;;5053511;28;20124;-71
2023/12/24 04:54:12;;;;;;;2.78;1.30;;;10.50;99.90;;;;;;5053317;28;20029;-71
2023/12/24 04:56:38;;;;;;;2.45;1.50;;;10.60;99.90;;;;;;5053514;28;20044;-71
2023/12/24 04:59:03;;;;;;;2.67;1.20;;;10.60;99.90;;;;;;5053194;28;20040;-71
2023/12/24 05:01:30;;;;;;;2.90;1.05;;;10.60;99.90;;;;;;5053281;28;20123;-71
2023/12/24 05:03:56;;;;;;;3.25;1.50;;;10.40;99.90;;;;;;5053089;28;20496;-71
2023/12/24 05:06:21;;;;;;;2.05;1.30;;;10.50;99.90;;;;;;5053194;28;20044;-71
2023/12/24 05:08:47;;;;;;;1.73;1.10;;;10.60;99.90;;;;;;5051676;28;20048;-71
2023/12/24 05:11:13;;;;;;;1.52;0.88;;;10.70;99.90;;;;;;5053252;28;20048;-73
2023/12/24 05:13:38;;;;;;;3.63;1.30;;;10.50;99.90;;;;;;5053324;28;20033;-71
2023/12/24 05:16:05;;;;;;;1.88;0.82;;;10.50;99.90;;;;;;5052974;28;20041;-71
2023/12/24 05:18:33;;;;;;;3.65;1.20;;;10.60;99.90;;;;;;5035182;28;20048;-71
2023/12/24 05:20:59;;;;;;;2.35;0.75;;;10.60;99.90;;;;;;5052954;28;20048;-71
2023/12/24 05:23:25;;;;;;;2.40;0.80;;;10.70;99.90;;;;;;5044227;28;20041;-71
2023/12/24 05:25:51;;;;;;;6.63;1.20;;;10.80;99.90;;;;;;5031825;28;20033;-71
2023/12/24 05:28:17;;;;;;;2.13;1.10;;;10.50;99.90;;;;;;5032875;28;20497;-71
2023/12/24 05:30:47;;;;;;;3.30;0.90;;;10.50;99.90;;;;;;5032838;28;20498;-71
2023/12/24 05:33:13;;;;;;;4.38;1.10;;;10.70;99.90;;;;;;5032650;28;20041;-71
2023/12/24 05:35:39;;;;;;;2.15;1.23;;;10.60;99.90;;;;;;5048383;28;20561;-71
2023/12/24 05:38:04;;;;;;;2.58;1.00;;;10.80;99.90;;;;;;5052293;28;20041;-71
2023/12/24 05:40:30;;;;;;;3.65;1.33;;;10.60;99.90;;;;;;5052772;28;20033;-71
2023/12/24 05:42:56;;;;;;;5.90;1.50;;;10.60;99.90;;;;;;5052491;28;20041;-71
2023/12/24 05:45:22;;;;;;;1.67;1.20;;;10.50;99.90;;;;;;5052623;28;20036;-71
2023/12/24 05:47:47;;;;;;;6.10;2.15;;;10.60;99.90;;;;;;5052225;28;20508;-71
2023/12/24 05:50:13;;;;;;;2.55;1.33;;;10.80;99.90;;;;;;5052416;28;20041;-71
2023/12/24 05:52:41;;;;;;;3.42;1.83;;;10.60;99.90;;;;;;5052194;28;20048;-71
2023/12/24 05:55:07;;;;;;;2.67;1.52;;;10.80;99.90;;;;;;5052401;28;20112;-71
2023/12/24 05:57:34;;;;;;;8.23;1.92;;;10.70;99.90;;;;;;5050787;28;20041;-71
2023/12/24 05:59:59;;;;;;;6.45;2.17;;;10.80;99.90;;;;;;5052318;28;20114;-71
2023/12/24 06:02:25;;;;;;;7.70;2.65;;;10.70;99.90;;;;;;5050908;28;20083;-71
2023/12/24 06:04:51;;;;;;;6.22;2.03;;;10.80;99.90;;;;;;5051007;28;20132;-71
2023/12/24 06:07:17;;;;;;;4.90;2.67;;;10.70;99.90;;;;;;5050795;28;20045;-71
2023/12/24 06:09:42;;;;;;;11.18;4.20;;;10.90;99.90;;;;;;5052248;28;20033;-71
2023/12/24 06:12:08;;;;;;;7.20;2.78;;;11.00;99.90;;;;;;5051947;28;20174;-71
2023/12/24 06:14:34;;;;;;;6.68;3.22;;;11.00;99.90;;;;;;5051564;28;20116;-71
2023/12/24 06:16:59;;;;;;;15.90;4.82;;;11.00;99.90;;;;;;5051629;28;20119;-71
2023/12/24 06:19:25;;;;;;;12.73;3.33;;;10.90;99.90;;;;;;5051835;28;20051;-71
2023/12/24 06:21:51;;;;;;;7.90;3.78;;;10.80;99.90;;;;;;5051821;28;20048;-71
2023/12/24 06:24:21;;;;;;;13.48;3.75;;;10.90;99.90;;;;;;5051763;28;20041;-71
2023/12/24 06:26:51;;;;;;;10.20;3.97;;;11.20;99.90;;;;;;5051823;28;20036;-71
2023/12/24 06:29:17;;;;;;;12.02;4.07;;;11.20;99.90;;;;;;5051889;28;20044;-71
2023/12/24 06:31:42;;;;;;;11.85;4.20;;;11.20;99.90;;;;;;5051972;28;20056;-71
2023/12/24 06:34:09;;;;;;;13.32;4.00;;;11.10;99.90;;;;;;5051488;28;20116;-71
2023/12/24 06:36:34;;;;;;;12.88;3.60;;;11.20;99.90;;;;;;5051689;28;20135;-71
2023/12/24 06:39:00;;;;;;;12.55;4.28;;;11.00;99.90;;;;;;5050369;28;20524;-71
2023/12/24 06:41:25;;;;;;;12.95;4.40;;;11.20;99.90;;;;;;5051899;28;20063;-71
2023/12/24 06:43:51;;;;;;;15.57;4.72;;;11.10;99.90;;;;;;5051674;28;20099;-71
2023/12/24 06:46:17;;;;;;;19.63;5.10;;;11.10;99.90;;;;;;5051544;28;20500;-71
2023/12/24 06:48:44;;;;;;;19.17;4.80;;;11.30;99.90;;;;;;5050180;28;20052;-71
2023/12/24 06:51:09;;;;;;;11.68;4.15;;;11.40;99.90;;;;;;5051710;28;20033;-71
2023/12/24 06:53:35;;;;;;;9.05;4.10;;;11.20;99.90;;;;;;5051704;28;20504;-71
2023/12/24 06:56:01;;;;;;;13.88;4.15;;;11.30;99.90;;;;;;5051502;28;20041;-71
2023/12/24 06:58:27;;;;;;;13.38;5.25;;;11.40;99.90;;;;;;5051390;28;20044;-71
2023/12/24 07:00:52;;;;;;;8.13;3.63;;;11.40;99.90;;;;;;5051460;28;20393;-71
2023/12/24 07:03:18;;;;;;;24.85;5.03;;;11.50;99.90;;;;;;5051283;28;20037;-71
2023/12/24 07:05:44;;;;;;;16.48;4.65;;;11.30;99.90;;;;;;5051657;28;20124;-71
2023/12/24 07:08:10;;;;;;;12.32;4.40;;;11.30;99.90;;;;;;5049983;28;20408;-71
2023/12/24 07:10:36;;;;;;;11.00;4.15;;;11.40;99.90;;;;;;5051458;28;20411;-71
2023/12/24 07:13:02;;;;;;;11.48;4.15;;;11.50;99.90;;;;;;5051339;28;20053;-71
2023/12/24 07:15:30;;;;;;;12.75;4.60;;;11.20;99.90;;;;;;5051368;28;20041;-71
2023/12/24 07:17:55;;;;;;;17.70;5.32;;;11.50;99.90;;;;;;5050481;28;20051;-72
2023/12/24 07:20:21;;;;;;;11.82;4.43;;;11.50;99.90;;;;;;5048011;28;20030;-71
2023/12/24 07:22:46;;;;;;;14.70;3.95;;;11.50;99.90;;;;;;5046362;28;20041;-71
2023/12/24 07:25:12;;;;;;;11.10;4.30;;;11.30;99.90;;;;;;5042902;28;20045;-71
2023/12/24 07:27:38;;;;;;;10.15;4.38;;;11.60;99.90;;;;;;5053627;28;20064;-71
2023/12/24 07:30:04;;;;;;;14.68;5.03;;;11.40;99.90;;;;;;5055086;28;20468;-71
2023/12/24 07:32:30;;;;;;;15.18;5.50;;;11.40;99.90;;;;;;5054904;28;20114;-71
2023/12/24 07:34:58;;;;;;;15.90;5.00;;;11.30;99.90;;;;;;5054958;28;20516;-71
2023/12/24 07:37:24;;;;;;;14.82;4.47;;;11.60;99.90;;;;;;5034869;28;20073;-71
2023/12/24 07:39:50;;;;;;;12.90;5.70;;;11.40;99.90;;;;;;5035059;28;20034;-71
2023/12/24 07:42:15;;;;;;;16.63;4.70;;;11.70;99.90;;;;;;5035051;28;20091;-71
2023/12/24 07:44:42;;;;;;;17.30;4.70;;;11.60;99.90;;;;;;5034647;28;20125;-71
2023/12/24 07:47:08;;;;;;;16.08;5.07;;;11.70;99.90;;;;;;5037053;28;20045;-71
2023/12/24 07:49:34;;;;;;;17.63;4.65;;;11.60;99.90;;;;;;5045073;28;20500;-71
2023/12/24 07:52:00;;;;;;;19.60;5.72;;;11.70;99.90;;;;;;5054677;28;20048;-71
2023/12/24 07:54:25;;;;;;;14.98;5.07;;;11.50;99.90;;;;;;5054471;28;20033;-71
2023/12/24 07:56:51;;;;;;;21.83;4.95;;;11.50;99.90;;;;;;5054288;28;20037;-71
2023/12/24 07:59:16;;;;;;;21.00;4.97;;;11.70;99.90;;;;;;5054465;28;20124;-71
2023/12/24 08:01:42;;;;;;;18.27;5.03;;;11.70;99.90;;;;;;5054349;28;20461;-71
2023/12/24 08:04:08;;;;;;;14.05;4.55;;;11.50;99.90;;;;;;5054341;28;20043;-71
2023/12/24 08:06:33;;;;;;;15.52;4.82;;;11.70;99.90;;;;;;5054336;28;20045;-71
2023/12/24 08:08:59;;;;;;;18.48;4.05;;;11.70;99.90;;;;;;5053938;28;20128;-71
2023/12/24 08:11:25;;;;;;;11.40;4.45;;;11.60;99.90;;;;;;5052779;28;20044;-72
2023/12/24 08:13:51;;;;;;;11.38;4.18;;;11.60;99.90;;;;;;5054203;28;20071;-71
2023/12/24 08:16:16;;;;;;;17.98;5.13;;;11.40;99.90;;;;;;5053978;28;20112;-71
2023/12/24 08:18:42;;;;;;;10.77;4.15;;;11.40;99.90;;;;;;5053914;28;20114;-71
2023/12/24 08:21:10;;;;;;;13.00;4.95;;;11.60;99.90;;;;;;5054244;28;20033;-71
2023/12/24 08:23:36;;;;;;;17.50;4.80;;;11.50;99.90;;;;;;5054128;28;20051;-71
2023/12/24 08:26:01;;;;;;;18.20;4.97;;;11.40;99.90;;;;;;5053982;28;20076;-71
2023/12/24 08:28:27;;;;;;;14.95;4.45;;;11.50;99.90;;;;;;5052478;28;20076;-71
2023/12/24 08:30:53;;;;;;;16.10;4.82;;;11.60;99.90;;;;;;5045448;28;20036;-71
2023/12/24 08:33:18;;;;;;;19.30;5.38;;;11.70;99.90;;;;;;5053639;28;20044;-71
2023/12/24 08:35:44;;;;;;;21.55;4.75;;;11.50;99.90;;;;;;5053520;28;20096;-71
2023/12/24 08:38:10;;;;;;;15.07;4.57;;;11.80;99.90;;;;;;5052815;28;20489;-71
2023/12/24 08:40:35;;;;;;;13.50;4.72;;;11.60;99.90;;;;;;5053860;28;20446;-71
2023/12/24 08:45:28;;;;;;;18.17;5.43;;;11.50;99.90;;;;;;5125168;22;20414;-76
2023/12/24 08:47:53;;;;;;;19.25;5.63;;;11.50;99.90;;;;;;5086903;28;20066;-79
2023/12/24 08:50:21;;;;;;;17.35;5.60;;;11.60;99.90;;;;;;5084611;28;20052;-79
2023/12/24 08:52:47;;;;;;;16.05;4.95;;;11.90;99.90;;;;;;5067191;28;20047;-77
2023/12/24 08:55:12;;;;;;;18.05;5.00;;;11.80;99.90;;;;;;5088097;28;20044;-77
2023/12/24 08:57:38;;;;;;;17.55;4.47;;;11.80;99.90;;;;;;5099675;28;20073;-76
2023/12/24 09:00:05;;;;;;;21.85;4.80;;;11.70;99.90;;;;;;5094918;28;20040;-81
2023/12/24 09:02:31;;;;;;;12.68;4.10;;;11.90;99.90;;;;;;5084192;28;20581;-78
2023/12/24 09:04:58;;;;;;;13.63;4.57;;;11.60;99.90;;;;;;5087642;28;20054;-78
2023/12/24 09:07:25;;;;;;;19.67;5.10;;;11.80;99.90;;;;;;5104992;28;20058;-78
2023/12/24 09:09:53;;;;;;;20.25;5.70;;;11.70;99.90;;;;;;5088067;28;20078;-80
2023/12/24 09:12:19;;;;;;;18.15;5.28;;;11.60;99.90;;;;;;5105810;28;20674;-77
2023/12/24 09:14:45;;;;;;;18.63;4.47;;;11.80;99.90;;;;;;5107203;28;20066;-77
2023/12/24 09:17:10;;;;;;;14.73;5.22;;;12.00;99.90;;;;;;5105126;28;20036;-77
2023/12/24 09:19:36;;;;;;;23.35;6.55;;;11.70;99.90;;;;;;5101476;28;20036;-76
2023/12/24 09:22:01;;;;;;;21.95;5.28;;;11.90;99.90;;;;;;5099894;28;20032;-76
2023/12/24 09:24:29;;;;;;;18.55;5.07;;;11.80;99.90;;;;;;5078483;28;20048;-77
2023/12/24 09:26:54;;;;;;;24.00;5.47;;;12.10;99.90;;;;;;5098560;28;20062;-77
2023/12/24 09:29:21;;;;;;;18.20;4.80;;;11.80;99.90;;;;;;5080842;28;20044;-77
2023/12/24 09:31:48;;;;;;;11.68;4.43;;;12.00;99.90;;;;;;5105757;28;20491;-77
2023/12/24 09:34:14;;;;;;;16.50;4.38;;;11.80;99.90;;;;;;5107174;28;20036;-78
2023/12/24 09:36:40;;;;;;;15.35;3.90;;;12.10;99.90;;;;;;5106573;28;20057;-78
2023/12/24 09:39:05;;;;;;;15.27;4.57;;;11.80;99.90;;;;;;5103374;28;20118;-79
2023/12/24 09:41:31;;;;;;;17.67;4.20;;;11.90;99.90;;;;;;5087454;28;20044;-78
2023/12/24 09:43:57;;;;;;;19.88;4.15;;;12.10;99.90;;;;;;5107043;28;20039;-79
2023/12/24 09:46:23;;;;;;;18.73;4.45;;;11.90;99.90;;;;;;5071011;28;20048;-79
2023/12/24 09:48:49;;;;;;;21.80;4.88;;;12.20;99.90;;;;;;5084241;28;20040;-79
2023/12/24 09:51:15;;;;;;;18.88;3.97;;;12.10;99.90;;;;;;5079998;28;20427;-77
2023/12/24 09:53:45;;;;;;;22.80;4.68;;;11.90;99.90;;;;;;5062304;28;20483;-78
2023/12/24 09:56:10;;;;;;;16.25;4.60;;;12.20;99.90;;;;;;5085038;28;20051;-79
2023/12/24 09:58:36;;;;;;;15.80;4.03;;;11.90;99.90;;;;;;5061395;28;20037;-78
2023/12/24 10:01:02;;;;;;;23.67;4.68;;;12.10;99.90;;;;;;5062272;28;20036;-77
2023/12/24 10:03:27;;;;;;;18.40;4.65;;;12.30;99.90;;;;;;5076810;28;20090;-78
2023/12/24 10:06:04;;;;;;;15.32;4.38;;;12.00;99.90;;;;;;5078803;28;20090;-78
2023/12/24 10:08:37;;;;;;;15.27;4.55;;;12.00;99.90;;;;;;5076526;28;20499;-77
2023/12/24 10:11:17;;;;;;;22.60;5.13;;;12.30;99.90;;;;;;5096539;28;20063;-77
2023/12/24 10:13:43;;;;;;;21.80;4.72;;;12.20;99.90;;;;;;5080240;28;20044;-77
2023/12/24 10:16:10;;;;;;;16.25;4.82;;;12.20;99.90;;;;;;5058566;28;20048;-76
2023/12/24 10:18:36;;;;;;;19.83;5.32;;;12.10;99.90;;;;;;5095698;28;20051;-75
2023/12/24 10:21:04;;;;;;;25.20;5.82;;;12.10;99.90;;;;;;5075972;28;20043;-76
2023/12/24 10:23:30;;;;;;;11.65;4.45;;;12.40;99.90;;;;;;5095111;28;20105;-77
2023/12/24 10:26:06;;;;;;;24.02;5.40;;;12.40;99.90;;;;;;5085851;28;20047;-77
2023/12/24 10:28:33;;;;;;;18.23;5.05;;;12.20;99.90;;;;;;5082535;28;20048;-76
2023/12/24 10:31:08;;;;;;;18.92;4.78;;;12.40;99.90;;;;;;5080185;28;20077;-77
2023/12/24 10:33:36;;;;;;;14.32;4.28;;;12.20;99.90;;;;;;5099197;28;20039;-76
2023/12/24 10:36:02;;;;;;;24.35;5.90;;;12.10;99.90;;;;;;5093472;28;20499;-79
2023/12/24 10:38:28;;;;;;;16.90;4.88;;;12.30;99.90;;;;;;5094287;28;20047;-79
2023/12/24 10:40:54;;;;;;;26.77;5.32;;;12.50;99.90;;;;;;5076606;28;20035;-78
2023/12/24 10:43:19;;;;;;;20.35;4.50;;;12.40;99.90;;;;;;5077192;28;20044;-79
2023/12/24 10:45:45;;;;;;;20.42;5.18;;;12.50;99.90;;;;;;5074744;28;20085;-77
2023/12/24 10:48:11;;;;;;;17.45;4.97;;;12.50;99.90;;;;;;5074938;28;20044;-79
2023/12/24 10:50:37;;;;;;;17.95;6.38;;;12.30;99.90;;;;;;5076337;28;20123;-79
2023/12/24 10:53:03;;;;;;;19.30;4.47;;;12.40;99.90;;;;;;5080496;28;20040;-80
2023/12/24 10:55:31;;;;;;;17.67;4.82;;;12.50;99.90;;;;;;5082921;28;20533;-77
2023/12/24 10:58:09;;;;;;;19.48;5.78;;;12.40;99.90;;;;;;5081354;28;20028;-77
2023/12/24 11:00:34;;;;;;;20.80;5.38;;;12.50;99.90;;;;;;5075740;28;20040;-78
2023/12/24 11:03:00;;;;;;;24.08;5.90;;;12.40;99.90;;;;;;5068119;28;20036;-79
2023/12/24 11:05:45;;;;;;;17.55;5.03;;;12.60;99.90;;;;;;5061331;28;20127;-78
2023/12/24 11:08:19;;;;;;;14.10;5.63;;;12.60;99.90;;;;;;5064056;28;20063;-76
2023/12/24 11:11:03;;;;;;;16.50;5.95;;;12.70;99.90;;;;;;5071100;28;20444;-77
2023/12/24 11:13:32;;;;;;;13.18;5.60;;;12.60;99.90;;;;;;5082365;28;20051;-79
2023/12/24 11:16:10;;;;;;;21.00;5.13;;;12.50;99.90;;;;;;5078821;28;20032;-78
2023/12/24 11:18:42;;;;;;;22.38;6.25;;;12.80;99.90;;;;;;5060405;28;21685;-78
2023/12/24 11:21:10;;;;;;;22.95;6.35;;;12.60;99.90;;;;;;5062071;28;20549;-80
2023/12/24 11:23:36;;;;;;;15.57;6.47;;;12.50;99.90;;;;;;5065483;28;20044;-80
2023/12/24 11:26:30;;;;;;;16.05;6.55;;;12.70;99.90;;;;;;5088254;28;20040;-79
2023/12/24 11:28:56;;;;;;;17.55;6.95;;;12.60;99.90;;;;;;5088076;28;20040;-80
2023/12/24 11:31:26;;;;;;;17.60;6.82;;;12.90;99.90;;;;;;5066952;28;20556;-80
2023/12/24 11:33:54;;;;;;;23.83;7.28;;;12.60;99.90;;;;;;5109167;28;20068;-80
2023/12/24 11:36:21;;;;;;;13.57;7.07;;;12.90;99.90;;;;;;5068759;28;20056;-78
2023/12/24 11:38:53;;;;;;;18.10;6.93;;;12.50;99.90;;;;;;5083061;28;20036;-77
2023/12/24 11:41:19;;;;;;;15.43;6.78;;;12.60;99.90;;;;;;5067765;28;20040;-78
2023/12/24 11:43:59;;;;;;;23.77;7.60;;;12.80;99.90;;;;;;5080168;28;20036;-78
2023/12/24 11:46:26;;;;;;;18.92;7.00;;;12.60;99.90;;;;;;5076772;28;20032;-78
2023/12/24 11:49:00;;;;;;;18.45;6.85;;;13.00;99.90;;;;;;5080016;28;20044;-78
2023/12/24 11:51:26;;;;;;;18.13;6.10;;;12.80;99.90;;;;;;5079274;28;20052;-76
2023/12/24 11:54:00;;;;;;;20.23;7.15;;;12.60;99.90;;;;;;5082301;28;20039;-77
2023/12/24 11:56:29;;;;;;;18.13;5.90;;;13.00;99.90;;;;;;5051008;28;20040;-80
2023/12/24 11:58:54;;;;;;;15.07;6.80;;;12.70;99.90;;;;;;5080699;28;20047;-78
2023/12/24 12:01:24;;;;;;;16.52;6.72;;;12.90;99.90;;;;;;5097018;28;20032;-79
2023/12/24 12:03:54;;;;;;;17.80;5.88;;;13.10;99.90;;;;;;5079911;28;20038;-79
2023/12/24 12:06:20;;;;;;;23.77;5.72;;;12.90;99.90;;;;;;5083294;28;20566;-78
2023/12/24 12:08:46;;;;;;;13.93;5.75;;;12.70;99.90;;;;;;5099857;28;20121;-78
2023/12/24 12:11:12;;;;;;;25.55;6.57;;;12.70;99.90;;;;;;5080623;28;20036;-77
2023/12/24 12:13:38;;;;;;;14.88;6.25;;;13.00;99.90;;;;;;5077381;28;20118;-77
2023/12/24 12:16:04;;;;;;;16.75;5.07;;;12.80;99.90;;;;;;5077558;28;20040;-77
2023/12/24 12:18:29;;;;;;;16.40;5.95;;;12.70;99.90;;;;;;5077011;28;20040;-78
2023/12/24 12:20:55;;;;;;;22.58;5.93;;;12.90;99.90;;;;;;5082186;28;20522;-78
2023/12/24 12:23:21;;;;;;;16.50;5.03;;;13.10;99.90;;;;;;5077892;28;20051;-77
2023/12/24 12:25:46;;;;;;;18.38;5.80;;;12.70;99.90;;;;;;5078079;28;20510;-76
2023/12/24 12:28:12;;;;;;;16.20;5.22;;;13.00;99.90;;;;;;5076667;28;20028;-77
2023/12/24 12:30:38;;;;;;;16.05;6.38;;;12.90;99.90;;;;;;5096679;28;20406;-78
2023/12/24 12:33:04;;;;;;;16.52;5.97;;;12.80;99.90;;;;;;5059482;28;20047;-77
2023/12/24 12:35:30;;;;;;;19.15;7.43;;;12.80;99.90;;;;;;5081737;28;20040;-77
2023/12/24 12:37:56;;;;;;;17.65;6.65;;;12.80;99.90;;;;;;5063743;28;20132;-78
2023/12/24 12:40:22;;;;;;;14.35;5.03;;;13.10;99.90;;;;;;5082485;28;20072;-79